createdAt,value
2023-04-10T00:02:00.650Z,101099.94
2023-04-10T00:04:28.371Z,101082.03
2023-04-10T00:06:55.534Z,101080.09
2023-04-10T00:09:22.275Z,101093.84
2023-04-10T00:11:48.961Z,101068.81
2023-04-10T00:14:15.640Z,101103.81
2023-04-10T00:16:42.324Z,101099.66
2023-04-10T00:19:09.026Z,101104.25
2023-04-10T00:21:35.904Z,101109.16
2023-04-10T00:24:02.483Z,101108.72
2023-04-10T00:26:29.077Z,101115.47
2023-04-10T00:28:55.704Z,101113.69
2023-04-10T00:31:22.370Z,101118.53
2023-04-10T00:33:49.053Z,101121.19
2023-04-10T00:36:16.317Z,101116.00
2023-04-10T00:38:43.197Z,101119.97
2023-04-10T00:41:09.810Z,101129.97
2023-04-10T00:43:36.525Z,101121.78
2023-04-10T00:46:04.318Z,101112.00
2023-04-10T00:48:31.227Z,101116.91
2023-04-10T00:50:57.834Z,101120.16
2023-04-10T00:53:24.460Z,101110.78
2023-04-10T00:55:51.056Z,101111.41
2023-04-10T00:58:17.676Z,101079.75
2023-04-10T01:00:47.078Z,101108.34
2023-04-10T01:03:14.406Z,101110.50
2023-04-10T01:06:26.493Z,101098.06
2023-04-10T01:09:01.108Z,101103.03
2023-04-10T01:11:51.194Z,101100.50
2023-04-10T01:14:37.010Z,101096.25
2023-04-10T01:17:11.838Z,101098.34
2023-04-10T01:20:00.882Z,101095.81
2023-04-10T01:23:12.506Z,101100.44
2023-04-10T01:26:06.526Z,101101.03
2023-04-10T01:28:56.919Z,101105.72
2023-04-10T01:31:36.995Z,101114.06
2023-04-10T01:34:11.831Z,101112.44
2023-04-10T01:36:42.452Z,101104.50
2023-04-10T01:39:09.027Z,101129.09
2023-04-10T01:41:35.644Z,101127.97
2023-04-10T01:44:03.869Z,101125.81
2023-04-10T01:46:30.551Z,101121.72
2023-04-10T01:48:57.565Z,101124.63
2023-04-10T01:51:24.142Z,101125.16
2023-04-10T01:53:50.825Z,101126.47
2023-04-10T01:56:23.988Z,101129.75
2023-04-10T01:58:50.800Z,101125.66
2023-04-10T02:01:29.214Z,101119.13
2023-04-10T02:03:57.992Z,101112.06
2023-04-10T02:06:51.969Z,101121.09
2023-04-10T02:09:35.224Z,101114.06
2023-04-10T02:12:07.061Z,101087.91
2023-04-10T02:14:34.378Z,101116.91
2023-04-10T02:17:01.116Z,101108.94
2023-04-10T02:19:27.978Z,101106.56
2023-04-10T02:21:54.546Z,101102.69
2023-04-10T02:24:21.193Z,101101.75
2023-04-10T02:26:48.399Z,101102.34
2023-04-10T02:29:15.008Z,101093.06
2023-04-10T02:31:41.981Z,101088.66
2023-04-10T02:34:08.847Z,101092.91
2023-04-10T02:36:36.827Z,101095.66
2023-04-10T02:39:03.801Z,101095.06
2023-04-10T02:41:30.902Z,101088.94
2023-04-10T02:43:59.903Z,101094.44
2023-04-10T02:46:27.844Z,101085.25
2023-04-10T02:48:55.253Z,101087.63
2023-04-10T02:51:21.922Z,101090.69
2023-04-10T02:53:48.657Z,101087.47
2023-04-10T02:56:25.773Z,101092.09
2023-04-10T02:58:52.498Z,101083.75
2023-04-10T03:01:19.562Z,101083.75
2023-04-10T03:03:47.835Z,101083.16
2023-04-10T03:06:26.076Z,101079.91
2023-04-10T03:08:53.489Z,101081.53
2023-04-10T03:11:20.103Z,101080.06
2023-04-10T03:13:47.423Z,101076.56
2023-04-10T03:16:14.059Z,101073.88
2023-04-10T03:18:41.514Z,101072.91
2023-04-10T03:21:08.191Z,101048.44
2023-04-10T03:23:34.785Z,101061.31
2023-04-10T03:26:01.849Z,101065.84
2023-04-10T03:28:30.657Z,101027.25
2023-04-10T03:30:57.239Z,101033.41
2023-04-10T03:33:23.824Z,101052.22
2023-04-10T03:35:50.558Z,101015.13
2023-04-10T03:38:17.139Z,101040.72
2023-04-10T03:40:43.726Z,101039.69
2023-04-10T03:43:11.269Z,101038.97
2023-04-10T03:45:38.393Z,101027.47
2023-04-10T03:48:05.690Z,101026.91
2023-04-10T03:50:40.630Z,101026.97
2023-04-10T03:53:07.230Z,101020.44
2023-04-10T03:55:34.352Z,101027.13
2023-04-10T03:58:01.130Z,101028.34
2023-04-10T04:00:29.597Z,101024.88
2023-04-10T04:03:07.431Z,101026.88
2023-04-10T04:05:52.563Z,101021.41
2023-04-10T04:08:42.291Z,101035.72
2023-04-10T04:11:19.021Z,101033.94
2023-04-10T04:13:56.385Z,101033.59
2023-04-10T04:16:41.578Z,101034.03
2023-04-10T04:19:14.849Z,101033.47
2023-04-10T04:22:02.972Z,101032.56
2023-04-10T04:24:55.619Z,101021.84
2023-04-10T04:27:41.638Z,101033.44
2023-04-10T04:30:22.327Z,101027.22
2023-04-10T04:33:06.080Z,101029.97
2023-04-10T04:35:50.555Z,101027.94
2023-04-10T04:38:36.288Z,101028.16
2023-04-10T04:41:23.030Z,101028.16
2023-04-10T04:44:08.302Z,101030.22
2023-04-10T04:46:57.935Z,101044.84
2023-04-10T04:49:24.544Z,101041.91
2023-04-10T04:52:09.188Z,101049.84
2023-04-10T04:54:40.409Z,101044.47
2023-04-10T04:57:25.424Z,101031.22
2023-04-10T05:00:11.130Z,101043.91
2023-04-10T05:02:56.709Z,101052.31
2023-04-10T05:05:34.614Z,101050.34
2023-04-10T05:08:14.551Z,101059.34
2023-04-10T05:11:04.202Z,101048.03
2023-04-10T05:13:52.487Z,101057.41
2023-04-10T05:16:46.181Z,101060.16
2023-04-10T05:19:31.224Z,101042.72
2023-04-10T05:22:18.553Z,101051.31
2023-04-10T05:24:45.241Z,101047.75
2023-04-10T05:27:44.034Z,101052.94
2023-04-10T05:30:47.393Z,101042.09
2023-04-10T05:33:32.451Z,101048.03
2023-04-10T05:36:18.345Z,101049.75
2023-04-10T05:39:03.713Z,101042.63
2023-04-10T05:41:50.406Z,101042.00
2023-04-10T05:44:39.961Z,101044.84
2023-04-10T05:47:22.935Z,101051.09
2023-04-10T05:50:04.867Z,101036.69
2023-04-10T05:52:55.693Z,101048.53
2023-04-10T05:55:40.993Z,101054.09
2023-04-10T05:58:28.443Z,101053.72
2023-04-10T06:01:14.686Z,101063.50
2023-04-10T06:03:49.828Z,101056.06
2023-04-10T06:06:17.279Z,101052.59
2023-04-10T06:08:44.330Z,101059.91
2023-04-10T06:11:11.109Z,101049.78
2023-04-10T06:13:39.130Z,101052.03
2023-04-10T06:16:06.495Z,101052.63
2023-04-10T06:18:36.869Z,101052.72
2023-04-10T06:21:03.633Z,101049.06
2023-04-10T06:23:30.467Z,101043.25
2023-04-10T06:25:57.011Z,101040.88
2023-04-10T06:28:23.587Z,101034.00
2023-04-10T06:30:55.557Z,101010.13
2023-04-10T06:33:29.874Z,101041.75
2023-04-10T06:35:57.349Z,101038.47
2023-04-10T06:38:24.016Z,101046.50
2023-04-10T06:40:50.960Z,101006.47
2023-04-10T06:43:17.535Z,101033.22
2023-04-10T06:45:44.192Z,101031.19
2023-04-10T06:48:10.722Z,101035.09
2023-04-10T06:50:37.301Z,101038.56
2023-04-10T06:53:03.929Z,101034.09
2023-04-10T06:55:30.693Z,101045.91
2023-04-10T06:57:57.289Z,101029.81
2023-04-10T07:00:25.078Z,101026.09
2023-04-10T07:02:51.688Z,101038.72
2023-04-10T07:05:18.308Z,101024.19
2023-04-10T07:07:44.928Z,101033.00
2023-04-10T07:10:11.627Z,101026.84
2023-04-10T07:12:38.267Z,101026.34
2023-04-10T07:15:08.576Z,101031.72
2023-04-10T07:17:35.397Z,101032.84
2023-04-10T07:20:02.037Z,101034.97
2023-04-10T07:22:28.611Z,101031.09
2023-04-10T07:24:55.201Z,101030.50
2023-04-10T07:27:23.222Z,101036.09
2023-04-10T07:29:49.860Z,101033.47
2023-04-10T07:32:16.843Z,101012.25
2023-04-10T07:34:43.569Z,101019.63
2023-04-10T07:37:13.549Z,101028.59
2023-04-10T07:39:40.402Z,101026.34
2023-04-10T07:42:07.024Z,101020.03
2023-04-10T07:44:33.616Z,101018.66
2023-04-10T07:47:00.279Z,101018.41
2023-04-10T07:49:30.154Z,101010.66
2023-04-10T07:51:56.714Z,101014.69
2023-04-10T07:54:23.341Z,101015.59
2023-04-10T07:56:52.377Z,101004.66
2023-04-10T07:59:19.037Z,101010.16
2023-04-10T08:01:45.862Z,101020.03
2023-04-10T08:04:15.678Z,101018.09
2023-04-10T08:06:42.562Z,101011.25
2023-04-10T08:09:09.163Z,101021.41
2023-04-10T08:11:41.360Z,101023.25
2023-04-10T08:14:07.916Z,101025.59
2023-04-10T08:16:35.624Z,101020.63
2023-04-10T08:19:02.549Z,101018.47
2023-04-10T08:21:32.467Z,100986.63
2023-04-10T08:24:00.889Z,101014.78
2023-04-10T08:26:28.050Z,101011.47
2023-04-10T08:28:56.592Z,101005.97
2023-04-10T08:31:24.143Z,101008.03
2023-04-10T08:33:52.009Z,101006.22
2023-04-10T08:36:20.398Z,100975.22
2023-04-10T08:38:47.364Z,101002.97
2023-04-10T08:41:18.075Z,100947.06
2023-04-10T08:43:46.108Z,100993.81
2023-04-10T08:46:14.350Z,100986.69
2023-04-10T08:49:01.953Z,100982.81
2023-04-10T08:51:41.210Z,100978.31
2023-04-10T08:54:10.798Z,100968.84
2023-04-10T08:56:37.925Z,100969.97
2023-04-10T08:59:04.677Z,100962.22
2023-04-10T09:01:31.755Z,100966.91
2023-04-10T09:03:59.289Z,100957.34
2023-04-10T09:06:27.208Z,100955.50
2023-04-10T09:08:53.838Z,100953.56
2023-04-10T09:11:20.566Z,100960.31
2023-04-10T09:13:47.661Z,100959.59
2023-04-10T09:16:14.438Z,100952.06
2023-04-10T09:18:48.508Z,100942.16
2023-04-10T09:21:17.283Z,100950.97
2023-04-10T09:23:44.607Z,100940.56
2023-04-10T09:26:34.040Z,100922.84
2023-04-10T09:29:00.891Z,100936.16
2023-04-10T09:31:31.494Z,100929.22
2023-04-10T09:34:26.302Z,100927.78
2023-04-10T09:36:54.717Z,100920.06
2023-04-10T09:39:21.439Z,100884.56
2023-04-10T09:41:56.892Z,100912.09
2023-04-10T09:44:34.510Z,100895.59
2023-04-10T09:47:25.923Z,100905.56
2023-04-10T09:50:00.704Z,100904.84
2023-04-10T09:52:31.042Z,100903.41
2023-04-10T09:55:04.579Z,100905.25
2023-04-10T09:57:32.107Z,100899.53
2023-04-10T10:00:01.126Z,100888.19
2023-04-10T10:02:31.416Z,100873.00
2023-04-10T10:05:01.572Z,100853.94
2023-04-10T10:07:28.324Z,100862.94
2023-04-10T10:09:55.015Z,100872.06
2023-04-10T10:12:30.962Z,100871.47
2023-04-10T10:15:11.806Z,100868.84
2023-04-10T10:18:11.632Z,100865.66
2023-04-10T10:20:39.941Z,100872.91
2023-04-10T10:23:07.527Z,100860.63
2023-04-10T10:25:35.031Z,100848.88
2023-04-10T10:28:04.113Z,100843.03
2023-04-10T10:30:37.242Z,100849.75
2023-04-10T10:33:07.007Z,100842.31
2023-04-10T10:35:36.864Z,100836.47
2023-04-10T10:38:04.074Z,100830.59
2023-04-10T10:40:43.036Z,100834.34
2023-04-10T10:43:33.205Z,100828.28
2023-04-10T10:46:37.333Z,100826.00
2023-04-10T10:49:03.984Z,100827.13
2023-04-10T10:51:50.283Z,100812.03
2023-04-10T10:54:29.509Z,100805.88
2023-04-10T10:56:56.137Z,100807.38
2023-04-10T10:59:47.555Z,100808.63
2023-04-10T11:02:18.072Z,100802.31
2023-04-10T11:04:48.832Z,100786.41
2023-04-10T11:07:15.956Z,100795.81
2023-04-10T11:09:52.946Z,100793.25
2023-04-10T11:12:26.884Z,100788.66
2023-04-10T11:15:00.949Z,100778.41
2023-04-10T11:17:50.317Z,100791.03
2023-04-10T11:20:18.390Z,100777.25
2023-04-10T11:23:07.703Z,100772.38
2023-04-10T11:25:53.744Z,100763.31
2023-04-10T11:28:43.240Z,100769.19
2023-04-10T11:31:22.807Z,100726.00
2023-04-10T11:34:00.281Z,100754.66
2023-04-10T11:36:27.288Z,100746.25
2023-04-10T11:39:08.759Z,100737.03
2023-04-10T11:41:36.708Z,100730.16
2023-04-10T11:44:14.899Z,100722.22
2023-04-10T11:46:47.273Z,100733.72
2023-04-10T11:49:24.264Z,100724.22
2023-04-10T11:51:51.328Z,100721.28
2023-04-10T11:54:18.459Z,100722.59
2023-04-10T11:57:04.351Z,100714.97
2023-04-10T11:59:34.260Z,100714.97
2023-04-10T12:02:19.357Z,100706.06
2023-04-10T12:04:46.177Z,100710.28
2023-04-10T12:07:12.865Z,100655.34
2023-04-10T12:09:39.727Z,100691.13
2023-04-10T12:12:07.257Z,100686.13
2023-04-10T12:14:35.524Z,100657.00
2023-04-10T12:17:05.445Z,100672.34
2023-04-10T12:19:32.017Z,100659.31
2023-04-10T12:21:59.015Z,100658.69
2023-04-10T12:24:45.638Z,100660.69
2023-04-10T12:27:38.188Z,100658.56
2023-04-10T12:30:23.796Z,100663.56
2023-04-10T12:32:56.872Z,100659.69
2023-04-10T12:35:42.764Z,100660.69
2023-04-10T12:38:09.475Z,100641.53
2023-04-10T12:40:36.170Z,100654.19
2023-04-10T12:43:02.764Z,100646.72
2023-04-10T12:45:45.370Z,100634.09
2023-04-10T12:48:11.979Z,100609.59
2023-04-10T12:50:48.072Z,100630.84
2023-04-10T12:53:15.192Z,100630.22
2023-04-10T12:55:42.717Z,100615.78
2023-04-10T12:58:17.405Z,100610.44
2023-04-10T13:00:44.041Z,100625.66
2023-04-10T13:03:13.760Z,100624.56
2023-04-10T13:05:40.604Z,100617.09
2023-04-10T13:08:07.303Z,100610.75
2023-04-10T13:10:33.930Z,100598.09
2023-04-10T13:13:00.660Z,100601.34
2023-04-10T13:15:27.364Z,100599.72
2023-04-10T13:17:54.112Z,100605.91
2023-04-10T13:20:20.962Z,100591.59
2023-04-10T13:22:47.616Z,100580.41
2023-04-10T13:25:14.283Z,100583.50
2023-04-10T13:27:40.844Z,100592.91
2023-04-10T13:30:08.129Z,100581.88
2023-04-10T13:32:34.819Z,100584.47
2023-04-10T13:35:01.474Z,100583.84
2023-04-10T13:37:28.131Z,100572.81
2023-04-10T13:39:54.971Z,100578.16
2023-04-10T13:42:21.630Z,100578.47
2023-04-10T13:44:48.466Z,100567.28
2023-04-10T13:47:15.523Z,100569.56
2023-04-10T13:49:42.175Z,100567.59
2023-04-10T13:52:08.798Z,100560.97
2023-04-10T13:54:37.363Z,100544.59
2023-04-10T13:57:05.157Z,100548.13
2023-04-10T13:59:31.799Z,100550.91
2023-04-10T14:01:58.569Z,100548.78
2023-04-10T14:04:25.457Z,100534.38
2023-04-10T14:06:53.153Z,100545.72
2023-04-10T14:09:19.842Z,100541.00
2023-04-10T14:11:46.458Z,100544.28
2023-04-10T14:14:13.063Z,100550.44
2023-04-10T14:16:39.664Z,100542.63
2023-04-10T14:19:06.590Z,100533.09
2023-04-10T14:21:33.164Z,100535.50
2023-04-10T14:24:02.549Z,100528.38
2023-04-10T14:26:29.225Z,100525.63
2023-04-10T14:28:56.100Z,100520.56
2023-04-10T14:31:22.872Z,100520.59
2023-04-10T14:33:49.525Z,100521.41
2023-04-10T14:36:16.280Z,100514.91
2023-04-10T14:38:42.944Z,100508.75
2023-04-10T14:41:09.622Z,100506.81
2023-04-10T14:43:37.264Z,100503.56
2023-04-10T14:46:04.063Z,100500.16
2023-04-10T14:48:30.851Z,100501.78
2023-04-10T14:50:59.027Z,100496.91
2023-04-10T14:53:25.718Z,100486.84
2023-04-10T14:55:52.271Z,100488.47
2023-04-10T14:58:18.859Z,100488.97
2023-04-10T15:00:45.676Z,100487.81
2023-04-10T15:03:12.378Z,100472.44
2023-04-10T15:05:38.990Z,100446.50
2023-04-10T15:08:05.748Z,100469.69
2023-04-10T15:10:32.282Z,100465.00
2023-04-10T15:12:58.879Z,100454.59
2023-04-10T15:15:25.608Z,100453.97
2023-04-10T15:17:52.356Z,100445.03
2023-04-10T15:20:19.157Z,100438.38
2023-04-10T15:22:47.995Z,100434.97
2023-04-10T15:25:14.799Z,100429.97
2023-04-10T15:27:41.731Z,100426.88
2023-04-10T15:30:08.658Z,100410.66
2023-04-10T15:32:37.297Z,100422.00
2023-04-10T15:35:04.326Z,100424.94
2023-04-10T15:37:30.931Z,100409.69
2023-04-10T15:39:57.523Z,100406.78
2023-04-10T15:42:24.129Z,100421.69
2023-04-10T15:44:50.778Z,100421.19
2023-04-10T15:47:17.392Z,100414.22
2023-04-10T15:49:44.058Z,100426.88
2023-04-10T15:52:10.958Z,100428.47
2023-04-10T15:54:38.834Z,100414.72
2023-04-10T15:57:05.502Z,100420.88
2023-04-10T15:59:32.615Z,100419.91
2023-04-10T16:02:02.342Z,100406.94
2023-04-10T16:04:29.293Z,100397.69
2023-04-10T16:06:56.676Z,100397.69
2023-04-10T16:09:26.431Z,100362.56
2023-04-10T16:11:54.265Z,100374.84
2023-04-10T16:14:21.016Z,100369.50
2023-04-10T16:16:47.632Z,100329.03
2023-04-10T16:19:14.216Z,100353.81
2023-04-10T16:21:40.875Z,100348.81
2023-04-10T16:24:07.572Z,100351.56
2023-04-10T16:26:34.183Z,100357.22
2023-04-10T16:29:00.824Z,100358.19
2023-04-10T16:31:27.547Z,100357.06
2023-04-10T16:33:54.289Z,100364.81
2023-04-10T16:36:20.868Z,100330.94
2023-04-10T16:38:49.847Z,100365.97
2023-04-10T16:41:21.014Z,100322.38
2023-04-10T16:43:47.815Z,100357.22
2023-04-10T16:46:14.564Z,100360.31
2023-04-10T16:48:41.345Z,100336.94
2023-04-10T16:51:09.367Z,100368.88
2023-04-10T16:53:36.345Z,100369.66
2023-04-10T16:56:05.069Z,100355.28
2023-04-10T16:58:33.600Z,100330.28
2023-04-10T17:01:00.682Z,100354.94
2023-04-10T17:03:27.491Z,100346.38
2023-04-10T17:05:54.209Z,100350.72
2023-04-10T17:08:20.819Z,100349.78
2023-04-10T17:10:47.493Z,100325.78
2023-04-10T17:13:14.268Z,100342.63
2023-04-10T17:15:40.954Z,100339.88
2023-04-10T17:18:07.803Z,100331.78
2023-04-10T17:20:37.724Z,100330.66
2023-04-10T17:23:04.496Z,100322.84
2023-04-10T17:25:31.316Z,100324.97
2023-04-10T17:28:01.406Z,100320.78
2023-04-10T17:30:28.784Z,100316.22
2023-04-10T17:32:55.931Z,100302.47
2023-04-10T17:35:22.992Z,100309.75
2023-04-10T17:37:49.939Z,100309.91
2023-04-10T17:40:16.659Z,100258.09
2023-04-10T17:42:43.326Z,100261.16
2023-04-10T17:45:10.364Z,100286.91
2023-04-10T17:47:37.036Z,100273.63
2023-04-10T17:50:04.336Z,100278.50
2023-04-10T17:52:31.000Z,100266.03
2023-04-10T17:54:59.152Z,100262.47
2023-04-10T17:57:25.762Z,100262.47
2023-04-10T17:59:52.576Z,100251.78
2023-04-10T18:02:19.391Z,100270.72
2023-04-10T18:04:46.188Z,100267.13
2023-04-10T18:07:13.020Z,100278.13
2023-04-10T18:09:40.295Z,100298.53
2023-04-10T18:12:07.031Z,100282.69
2023-04-10T18:14:33.829Z,100292.09
2023-04-10T18:17:01.308Z,100297.09
2023-04-10T18:19:29.545Z,100309.41
2023-04-10T18:21:56.391Z,100302.59
2023-04-10T18:24:23.146Z,100299.50
2023-04-10T18:26:49.796Z,100307.66
2023-04-10T18:29:16.420Z,100311.06
2023-04-10T18:31:43.037Z,100297.75
2023-04-10T18:34:10.056Z,100303.28
2023-04-10T18:36:36.956Z,100301.63
2023-04-10T18:39:04.715Z,100292.09
2023-04-10T18:41:31.636Z,100295.03
2023-04-10T18:44:04.791Z,100271.19
2023-04-10T18:46:32.959Z,100294.69
2023-04-10T18:49:01.129Z,100297.78
2023-04-10T18:51:28.146Z,100297.13
2023-04-10T18:53:55.034Z,100288.69
2023-04-10T18:56:22.119Z,100285.94
2023-04-10T18:58:50.214Z,100281.59
2023-04-10T19:01:17.885Z,100287.56
2023-04-10T19:03:47.836Z,100302.97
2023-04-10T19:06:17.627Z,100305.22
2023-04-10T19:08:44.247Z,100319.47
2023-04-10T19:11:11.349Z,100319.47
2023-04-10T19:13:38.087Z,100323.03
2023-04-10T19:16:05.016Z,100315.75
2023-04-10T19:18:32.225Z,100310.91
2023-04-10T19:20:59.319Z,100315.09
2023-04-10T19:23:26.452Z,100311.03
2023-04-10T19:25:54.539Z,100336.00
2023-04-10T19:28:23.012Z,100337.75
2023-04-10T19:30:50.013Z,100334.53
2023-04-10T19:33:17.298Z,100327.19
2023-04-10T19:35:44.187Z,100321.25
2023-04-10T19:38:11.136Z,100307.66
2023-04-10T19:40:38.146Z,100314.63
2023-04-10T19:43:04.787Z,100305.41
2023-04-10T19:45:33.047Z,100296.00
2023-04-10T19:48:00.323Z,100299.72
2023-04-10T19:50:29.077Z,100285.63
2023-04-10T19:52:56.041Z,100298.56
2023-04-10T19:55:22.923Z,100297.78
2023-04-10T19:57:49.958Z,100304.72
2023-04-10T20:00:16.933Z,100294.38
2023-04-10T20:02:43.869Z,100299.22
2023-04-10T20:05:10.835Z,100287.41
2023-04-10T20:07:37.778Z,100271.66
2023-04-10T20:10:04.774Z,100275.88
2023-04-10T20:12:34.560Z,100255.31
2023-04-10T20:15:04.618Z,100269.91
2023-04-10T20:17:31.266Z,100271.34
2023-04-10T20:19:58.082Z,100264.22
2023-04-10T20:22:25.330Z,100272.50
2023-04-10T20:24:51.956Z,100266.00
2023-04-10T20:27:18.618Z,100262.13
2023-04-10T20:29:45.437Z,100211.47
2023-04-10T20:32:12.098Z,100243.19
2023-04-10T20:34:38.915Z,100244.16
2023-04-10T20:37:05.802Z,100240.28
2023-04-10T20:39:33.051Z,100230.72
2023-04-10T20:41:59.746Z,100233.78
2023-04-10T20:44:26.434Z,100235.44
2023-04-10T20:46:53.133Z,100228.78
2023-04-10T20:49:19.738Z,100217.28
2023-04-10T20:51:49.232Z,100220.88
2023-04-10T20:54:15.890Z,100209.84
2023-04-10T20:56:43.986Z,100205.47
2023-04-10T20:59:11.404Z,100207.25
2023-04-10T21:01:38.552Z,100213.09
2023-04-10T21:04:05.669Z,100213.09
2023-04-10T21:06:33.566Z,100192.38
2023-04-10T21:09:00.357Z,100180.25
2023-04-10T21:11:27.466Z,100197.56
2023-04-10T21:13:54.270Z,100220.53
2023-04-10T21:16:21.081Z,100209.53
2023-04-10T21:18:47.964Z,100232.69
2023-04-10T21:21:14.712Z,100211.97
2023-04-10T21:23:41.478Z,100227.31
2023-04-10T21:26:08.209Z,100225.22
2023-04-10T21:28:34.887Z,100225.06
2023-04-10T21:31:01.606Z,100219.56
2023-04-10T21:33:28.196Z,100216.66
2023-04-10T21:35:54.873Z,100204.03
2023-04-10T21:38:23.390Z,100195.94
2023-04-10T21:40:53.602Z,100201.25
2023-04-10T21:43:20.715Z,100194.00
2023-04-10T21:45:47.388Z,100188.50
2023-04-10T21:48:14.082Z,100183.00
2023-04-10T21:50:41.505Z,100186.72
2023-04-10T21:53:08.095Z,100189.28
2023-04-10T21:55:34.713Z,100174.88
2023-04-10T21:58:04.367Z,100143.19
2023-04-10T22:00:31.102Z,100131.03
2023-04-10T22:02:57.846Z,100123.28
2023-04-10T22:05:24.698Z,100085.44
2023-04-10T22:07:52.118Z,100126.22
2023-04-10T22:10:21.732Z,100119.88
2023-04-10T22:12:49.189Z,100097.22
2023-04-10T22:15:16.510Z,100094.00
2023-04-10T22:17:43.193Z,100092.69
2023-04-10T22:20:10.476Z,100072.81
2023-04-10T22:22:37.134Z,100070.22
2023-04-10T22:25:03.906Z,100076.19
2023-04-10T22:27:30.591Z,100087.19
2023-04-10T22:30:03.460Z,100089.47
2023-04-10T22:32:31.206Z,100060.81
2023-04-10T22:34:59.129Z,100064.88
2023-04-10T22:37:26.286Z,100068.13
2023-04-10T22:39:56.100Z,100076.53
2023-04-10T22:42:22.920Z,100084.97
2023-04-10T22:44:49.547Z,100085.59
2023-04-10T22:47:16.076Z,100106.97
2023-04-10T22:49:42.622Z,100107.25
2023-04-10T22:52:09.179Z,100106.81
2023-04-10T22:54:35.850Z,100110.69
2023-04-10T22:57:02.406Z,100096.59
2023-04-10T22:59:28.949Z,100100.81
2023-04-10T23:01:55.667Z,100112.94
2023-04-10T23:04:22.359Z,100099.69
2023-04-10T23:06:48.933Z,100109.06
2023-04-10T23:09:15.642Z,100118.91
2023-04-10T23:11:42.398Z,100126.22
2023-04-10T23:14:08.923Z,100126.19
2023-04-10T23:16:35.644Z,100146.09
2023-04-10T23:19:02.282Z,100133.16
2023-04-10T23:21:28.923Z,100133.16
2023-04-10T23:23:55.587Z,100136.06
2023-04-10T23:26:22.199Z,100124.09
2023-04-10T23:28:48.851Z,100130.25
2023-04-10T23:31:15.730Z,100133.66
2023-04-10T23:33:42.380Z,100130.41
2023-04-10T23:36:09.236Z,100126.84
2023-04-10T23:38:35.764Z,100113.75
2023-04-10T23:41:03.020Z,100110.34
2023-04-10T23:43:29.668Z,100106.00
2023-04-10T23:45:56.528Z,100096.09
2023-04-10T23:48:23.163Z,100087.22
2023-04-10T23:50:49.697Z,100081.25
2023-04-10T23:53:16.362Z,100086.41
2023-04-10T23:55:43.081Z,100080.75
2023-04-10T23:58:10.441Z,100047.41
